Map

Track Data

SID SEASON NUMBER BASIN SUBBASIN NAME ISO_TIME NATURE LAT LON WMO_WIND WMO_PRES WMO_AGENCY TRACK_TYPE DIST2LAND LANDFALL IFLAG USA_AGENCY USA_ATCF_ID USA_LAT USA_LON USA_RECORD USA_STATUS USA_WIND USA_PRES USA_SSHS USA_R34_NE USA_R34_SE USA_R34_SW USA_R34_NW USA_R50_NE USA_R50_SE USA_R50_SW USA_R50_NW USA_R64_NE USA_R64_SE USA_R64_SW USA_R64_NW USA_POCI USA_ROCI USA_RMW USA_EYE TOKYO_LAT TOKYO_LON TOKYO_GRADE TOKYO_WIND TOKYO_PRES TOKYO_R50_DIR TOKYO_R50_LONG TOKYO_R50_SHORT TOKYO_R30_DIR TOKYO_R30_LONG TOKYO_R30_SHORT TOKYO_LAND CMA_LAT CMA_LON CMA_CAT CMA_WIND CMA_PRES HKO_LAT HKO_LON HKO_CAT HKO_WIND HKO_PRES NEWDELHI_LAT NEWDELHI_LON NEWDELHI_GRADE NEWDELHI_WIND NEWDELHI_PRES NEWDELHI_CI NEWDELHI_DP NEWDELHI_POCI REUNION_LAT REUNION_LON REUNION_TYPE REUNION_WIND REUNION_PRES REUNION_TNUM REUNION_CI REUNION_RMW REUNION_R34_NE REUNION_R34_SE REUNION_R34_SW REUNION_R34_NW REUNION_R50_NE REUNION_R50_SE REUNION_R50_SW REUNION_R50_NW REUNION_R64_NE REUNION_R64_SE REUNION_R64_SW REUNION_R64_NW BOM_LAT BOM_LON BOM_TYPE BOM_WIND BOM_PRES BOM_TNUM BOM_CI BOM_RMW BOM_R34_NE BOM_R34_SE BOM_R34_SW BOM_R34_NW BOM_R50_NE BOM_R50_SE BOM_R50_SW BOM_R50_NW BOM_R64_NE BOM_R64_SE BOM_R64_SW BOM_R64_NW BOM_ROCI BOM_POCI BOM_EYE BOM_POS_METHOD BOM_PRES_METHOD NADI_LAT NADI_LON NADI_CAT NADI_WIND NADI_PRES WELLINGTON_LAT WELLINGTON_LON WELLINGTON_WIND WELLINGTON_PRES DS824_LAT DS824_LON DS824_STAGE DS824_WIND DS824_PRES TD9636_LAT TD9636_LON TD9636_STAGE TD9636_WIND TD9636_PRES TD9635_LAT TD9635_LON TD9635_WIND TD9635_PRES TD9635_ROCI NEUMANN_LAT NEUMANN_LON NEUMANN_CLASS NEUMANN_WIND NEUMANN_PRES MLC_LAT MLC_LON MLC_CLASS MLC_WIND MLC_PRES USA_GUST BOM_GUST BOM_GUST_PER REUNION_GUST REUNION_GUST_PER USA_SEAHGT USA_SEARAD_NE USA_SEARAD_SE USA_SEARAD_SW USA_SEARAD_NW STORM_SPEED STORM_DIR
1960063S14155 1960 10 SP EA NOT_NAMED 1960-03-03 11:00:00 NR -13.5000 154.500 1003 bom main 525 525 ______O_______ -1 -13.5000 154.500 1003 1 0
1960063S14155 1960 10 SP EA NOT_NAMED 1960-03-03 12:00:00 TS -13.5242 154.498 main 525 525 ______P_______ -1 -13.5363 154.497 1003 2 189
1960063S14155 1960 10 SP EA NOT_NAMED 1960-03-03 15:00:00 TS -13.6236 154.488 main 532 532 ______P_______ -1 -13.6404 154.489 1003 2 0
1960063S14155 1960 10 SP EA NOT_NAMED 1960-03-03 18:00:00 TS -13.7104 154.483 main 539 539 ______P_______ -1 -13.7275 154.486 1003 1 184
1960063S14155 1960 10 SP EA NOT_NAMED 1960-03-03 21:00:00 TS -13.7713 154.486 main 546 539 ______P_______ -1 -13.7847 154.491 1003 1 0
1960063S14155 1960 10 SP EA NOT_NAMED 1960-03-03 23:00:00 TS -13.6398 154.474 1003 bom main 532 510 ______O___O___ -1 -13.8000 154.500 1003 -12.4000 154.300 1 8 353
1960063S14155 1960 10 SP EA NOT_NAMED 1960-03-04 00:00:00 TS -13.3904 154.439 main 510 503 O_____P__OP___ jtwc_sh SH161960 -12.6000 154.300 -1 -13.7998 154.507 1002 -12.6000 154.300 TC -12.5427 154.323 1 3 0
1960063S14155 1960 10 SP EA NOT_NAMED 1960-03-04 03:00:00 TS -13.4219 154.474 main 518 518 P_____P__PP___ SH161960 -13.0075 154.425 -1 -13.7852 154.530 1002 -13.0075 154.425 TC -12.9669 154.386 1 2 159
1960063S14155 1960 10 SP EA NOT_NAMED 1960-03-04 06:00:00 TS -13.5792 154.507 main 532 532 O_____P__OP___ jtwc_sh SH161960 -13.4000 154.500 -1 -13.7922 154.543 1002 -13.4000 154.500 TC -13.3770 154.427 1 4 177
1960063S14155 1960 10 SP EA NOT_NAMED 1960-03-04 09:00:00 TS -13.8169 154.499 main 546 546 P_____P__PP___ SH161960 -13.7650 154.488 -1 -13.8753 154.531 1002 -13.7650 154.488 TC -13.7622 154.429 1 5 185
1960063S14155 1960 10 SP EA NOT_NAMED 1960-03-04 11:00:00 TS -14.0016 154.460 1002 bom main 561 561 P_____O__PO___ SH161960 -13.9917 154.436 -1 -14.0000 154.500 1002 -13.9917 154.436 TC -14.0000 154.400 1 6 193
1960063S14155 1960 10 SP EA NOT_NAMED 1960-03-04 12:00:00 TS -14.1025 154.432 main 561 561 O_____P__OP___ jtwc_sh SH161960 -14.1000 154.400 -1 -14.1005 154.483 1001 -14.1000 154.400 TC -14.1121 154.375 1 7 197
1960063S14155 1960 10 SP EA NOT_NAMED 1960-03-04 15:00:00 TS -14.4377 154.317 main 577 577 P_____P__PP___ SH161960 -14.4300 154.273 -1 -14.4621 154.399 1000 -14.4300 154.273 TC -14.4188 154.261 1 7 202
1960063S14155 1960 10 SP EA NOT_NAMED 1960-03-04 17:00:00 TS -14.6457 154.210 1000 bom main 587 587 P_____O__PP___ SH161960 -14.6197 154.161 -1 -14.7000 154.300 1000 -14.6197 154.161 TC -14.5975 154.160 1 7 209
1960063S14155 1960 10 SP EA NOT_NAMED 1960-03-04 18:00:00 TS -14.7363 154.147 main 589 589 O_____P__OP___ jtwc_sh SH161960 -14.7000 154.100 -1 -14.8027 154.229 1000 -14.7000 154.100 TC -14.6788 154.105 1 6 221
1960063S14155 1960 10 SP EA NOT_NAMED 1960-03-04 21:00:00 TS -14.9509 153.928 main 602 596 P_____P__PP___ SH161960 -14.8800 153.900 -1 -15.0680 153.967 1000 -14.8800 153.900 TC -14.8890 153.924 1 6 228
1960063S14155 1960 10 SP EA NOT_NAMED 1960-03-04 23:00:00 TS -15.0560 153.781 1000 bom main 605 599 P_____O__PO___ SH161960 -14.9636 153.764 -1 -15.2000 153.800 1000 -14.9636 153.764 TC -15.0000 153.800 1 5 234
1960063S14155 1960 10 SP EA NOT_NAMED 1960-03-05 00:00:00 TS -15.1003 153.717 main 599 599 O_____P__OP___ jtwc_sh SH161960 -15.0000 153.700 -1 -15.2504 153.739 1000 -15.0000 153.700 TC -15.0509 153.747 1 4 234
1960063S14155 1960 10 SP EA NOT_NAMED 1960-03-05 03:00:00 TS -15.2121 153.562 main 603 597 P_____P__PP___ SH161960 -15.1150 153.550 -1 -15.3496 153.589 1000 -15.1150 153.550 TC -15.1661 153.585 1 4 236
1960063S14155 1960 10 SP EA NOT_NAMED 1960-03-05 05:00:00 TS -15.2678 153.465 1000 bom main 607 602 P_____O__PP___ SH161960 -15.1750 153.453 -1 -15.4000 153.500 1000 -15.1750 153.453 TC -15.2174 153.472 1 3 240
1960063S14155 1960 10 SP EA NOT_NAMED 1960-03-05 06:00:00 TS -15.2946 153.414 main 602 596 O_____P__OP___ jtwc_sh SH161960 -15.2000 153.400 -1 -15.4359 153.455 1000 -15.2000 153.400 TC -15.2371 153.414 1 4 244
1960063S14155 1960 10 SP EA NOT_NAMED 1960-03-05 09:00:00 TS -15.3687 153.245 main 601 597 P_____P__PP___ SH161960 -15.2575 153.207 -1 -15.5412 153.316 1000 -15.2575 153.207 TC -15.2797 153.231 1 4 248
1960063S14155 1960 10 SP EA NOT_NAMED 1960-03-05 11:00:00 TS -15.4089 153.120 1000 bom main 597 597 P_____O__PO___ SH161960 -15.2860 153.069 -1 -15.6000 153.200 1000 -15.2860 153.069 TC -15.3000 153.100 1 4 252
1960063S14155 1960 10 SP EA NOT_NAMED 1960-03-05 12:00:00 TS -15.4277 153.052 main 597 592 O_____P__OP___ jtwc_sh SH161960 -15.3000 153.000 -1 -15.6224 153.125 1000 -15.3000 153.000 TC -15.3162 153.035 1 4 255
1960063S14155 1960 10 SP EA NOT_NAMED 1960-03-05 15:00:00 TS -15.4798 152.835 main 593 589 P_____P__PP___ SH161960 -15.3575 152.808 -1 -15.6721 152.870 1000 -15.3575 152.808 TC -15.3544 152.832 1 4 257
1960063S14155 1960 10 SP EA NOT_NAMED 1960-03-05 17:00:00 TS -15.5073 152.683 1000 bom main 589 586 P_____O__PP___ SH161960 -15.3890 152.672 -1 -15.7000 152.700 1000 -15.3890 152.672 TC -15.3723 152.687 1 4 260
1960063S14155 1960 10 SP EA NOT_NAMED 1960-03-05 18:00:00 TS -15.5192 152.608 main 586 578 O_____P__OP___ jtwc_sh SH161960 -15.4000 152.600 -1 -15.7166 152.630 1000 -15.4000 152.600 TC -15.3794 152.612 1 4 262
1960063S14155 1960 10 SP EA NOT_NAMED 1960-03-05 21:00:00 TS -15.5451 152.391 main 578 575 P_____P__PP___ SH161960 -15.4075 152.365 -1 -15.7666 152.436 1000 -15.4075 152.365 TC -15.3942 152.372 1 4 264
1960063S14155 1960 10 SP EA NOT_NAMED 1960-03-05 23:00:00 TS -15.5577 152.233 1000 bom main 582 582 P_____O__PO___ SH161960 -15.4026 152.192 -1 -15.8000 152.300 1000 -15.4026 152.192 TC -15.4000 152.200 1 5 265
1960063S14155 1960 10 SP EA NOT_NAMED 1960-03-06 00:00:00 TS -15.5635 152.155 main 582 572 O_____P__OP___ jtwc_sh SH161960 -15.4000 152.100 -1 -15.8201 152.261 1000 -15.4000 152.100 TC -15.3972 152.111 1 5 266
1960063S14155 1960 10 SP EA NOT_NAMED 1960-03-06 03:00:00 TS -15.5815 151.889 main 572 566 P_____P__PP___ SH161960 -15.4000 151.808 -1 -15.8770 152.090 1000 -15.4000 151.808 TC -15.3807 151.829 1 6 267
1960063S14155 1960 10 SP EA NOT_NAMED 1960-03-06 05:00:00 TS -15.5906 151.658 1000 bom main 566 561 P_____O__PP___ SH161960 -15.4000 151.603 -1 -15.9000 151.800 1000 -15.4000 151.603 TC -15.3699 151.630 1 7 268
1960063S14155 1960 10 SP EA NOT_NAMED 1960-03-06 06:00:00 TS -15.5927 151.515 main 561 555 O_____P__OP___ jtwc_sh SH161960 -15.4000 151.500 -1 -15.8966 151.549 1000 -15.4000 151.500 TC -15.3667 151.527 1 9 269
1960063S14155 1960 10 SP EA NOT_NAMED 1960-03-06 08:00:00 TS -15.5971 151.204 1000 bom main 555 553 P_____O__PP___ SH161960 -15.3891 151.305 -1 -15.9000 151.000 1000 -15.3891 151.305 TC -15.3681 151.319 1 9 268
1960063S14155 1960 10 SP EA NOT_NAMED 1960-03-06 09:00:00 TS -15.6061 151.053 main 553 540 P_____P__PP___ SH161960 -15.3849 151.207 -1 -15.9285 150.767 1000 -15.3849 151.207 TC -15.3740 151.213 1 8 265
1960063S14155 1960 10 SP EA NOT_NAMED 1960-03-06 11:00:00 TS -15.6333 150.775 1000 bom main 540 530 P_____O__PO___ SH161960 -15.3885 151.006 -1 -16.0000 150.400 1000 -15.3885 151.006 TC -15.4000 151.000 1 8 264
1960063S14155 1960 10 SP EA NOT_NAMED 1960-03-06 12:00:00 TS -15.6448 150.654 main 530 496 O_____P__OP___ jtwc_sh SH161960 -15.4000 150.900 -1 -16.0091 150.285 1000 -15.4000 150.900 TC -15.4151 150.885 1 6 263
1960063S14155 1960 10 SP EA NOT_NAMED 1960-03-06 15:00:00 TS -15.6802 150.372 main 496 476 P_____P__PP___ SH161960 -15.4700 150.550 -1 -15.9924 150.152 1000 -15.4700 150.550 TC -15.4839 150.531 1 5 259
1960063S14155 1960 10 SP EA NOT_NAMED 1960-03-06 17:00:00 TS -15.7276 150.209 1000 bom main 476 462 P_____O__PP___ SH161960 -15.5500 150.314 -1 -16.0000 150.100 1000 -15.5500 150.314 TC -15.5528 150.298 1 5 251
1960063S14155 1960 10 SP EA NOT_NAMED 1960-03-06 18:00:00 TS -15.7647 150.122 main 462 452 O_____P__OP___ jtwc_sh SH161960 -15.6000 150.200 -1 -16.0282 150.024 1000 -15.6000 150.200 TC -15.5951 150.185 1 6 243
1960063S14155 1960 10 SP EA NOT_NAMED 1960-03-06 20:00:00 TS -15.8531 149.949 1000 bom main 438 438 P_____O__PP___ SH161960 -15.7067 149.970 -1 -16.1000 149.900 1000 -15.7067 149.970 TC -15.6974 149.972 1 5 239
1960063S14155 1960 10 SP EA NOT_NAMED 1960-03-06 21:00:00 TS -15.9040 149.877 main 438 424 P_____P__PP___ SH161960 -15.7700 149.863 -1 -16.1245 149.889 1000 -15.7700 149.863 TC -15.7580 149.874 1 5 226
1960063S14155 1960 10 SP EA NOT_NAMED 1960-03-06 23:00:00 TS -16.0305 149.757 1000 bom main 424 410 P_____O__PO___ SH161960 -15.9167 149.675 -1 -16.2000 149.900 1000 -15.9167 149.675 TC -15.9000 149.700 1 5 219
1960063S14155 1960 10 SP EA NOT_NAMED 1960-03-07 00:00:00 TS -16.1130 149.703 main 410 388 O_____P__OP___ jtwc_sh SH161960 -16.0000 149.600 -1 -16.2798 149.875 1000 -16.0000 149.600 TC -15.9850 149.641 1 6 204
1960063S14155 1960 10 SP EA NOT_NAMED 1960-03-07 03:00:00 TS -16.4210 149.572 main 388 372 P_____P__PP___ SH161960 -16.2774 149.477 -1 -16.6370 149.730 1000 -16.2774 149.477 TC -16.2858 149.513 1 7 201
1960063S14155 1960 10 SP EA NOT_NAMED 1960-03-07 05:00:00 TS -16.6537 149.493 1000 bom main 369 369 P_____O__PP___ SH161960 -16.4890 149.428 -1 -16.9000 149.600 1000 -16.4890 149.428 TC -16.5118 149.449 1 7 198
1960063S14155 1960 10 SP EA NOT_NAMED 1960-03-07 06:00:00 TS -16.7674 149.453 main 365 326 O_____P__OP___ jtwc_sh SH161960 -16.6000 149.400 -1 -17.0083 149.544 1000 -16.6000 149.400 TC -16.6287 149.418 1 7 201
1960063S14155 1960 10 SP EA NOT_NAMED 1960-03-07 09:00:00 TS -17.1014 149.312 main 326 302 P_____P__PP___ SH161960 -16.9499 149.287 -1 -17.3133 149.354 1000 -16.9499 149.287 TC -16.9791 149.308 1 7 205
1960063S14155 1960 10 SP EA NOT_NAMED 1960-03-07 11:00:00 TS -17.3162 149.186 1000 bom main 302 286 P_____O__PO___ SH161960 -17.1864 149.175 -1 -17.5000 149.200 1000 -17.1864 149.175 TC -17.2000 149.200 1 8 212
1960063S14155 1960 10 SP EA NOT_NAMED 1960-03-07 12:00:00 TS -17.4193 149.104 main 286 240 O_____P__OP___ jtwc_sh SH161960 -17.3000 149.100 -1 -17.5917 149.111 1000 -17.3000 149.100 TC -17.3046 149.108 1 8 223
1960063S14155 1960 10 SP EA NOT_NAMED 1960-03-07 15:00:00 TS -17.7172 148.788 main 240 210 P_____P__PP___ SH161960 -17.6301 148.765 -1 -17.8467 148.811 1000 -17.6301 148.765 TC -17.6066 148.782 1 8 228
1960063S14155 1960 10 SP EA NOT_NAMED 1960-03-07 17:00:00 TS -17.8922 148.556 1000 bom main 210 194 P_____O__PP___ SH161960 -17.8198 148.516 -1 -18.0000 148.600 1000 -17.8198 148.516 TC -17.7908 148.543 1 8 232
1960063S14155 1960 10 SP EA NOT_NAMED 1960-03-07 18:00:00 TS -17.9707 148.444 main 188 158 O_____P__OP___ jtwc_sh SH161960 -17.9000 148.400 -1 -18.0779 148.494 1000 -17.9000 148.400 TC -17.8756 148.424 1 7 236
1960063S14155 1960 10 SP EA NOT_NAMED 1960-03-07 21:00:00 TS -18.1659 148.137 main 153 138 P_____P__PP___ SH161960 -18.0874 148.120 -1 -18.2889 148.181 1000 -18.0874 148.120 TC -18.0930 148.087 1 7 238
1960063S14155 1960 10 SP EA NOT_NAMED 1960-03-07 23:00:00 TS -18.2599 147.963 1000 bom main 138 133 P_____O__PO___ SH161960 -18.1693 147.967 -1 -18.4000 148.000 1000 -18.1693 147.967 TC -18.2000 147.900 1 5 239
1960063S14155 1960 10 SP EA NOT_NAMED 1960-03-08 00:00:00 TS -18.2977 147.902 main 133 119 O_____P__OP___ jtwc_sh SH161960 -18.2000 147.900 -1 -18.4491 147.973 1000 -18.2000 147.900 TC -18.2396 147.835 1 4 237
1960063S14155 1960 10 SP EA NOT_NAMED 1960-03-08 03:00:00 TS -18.3879 147.756 main 119 113 P_____P__PP___ SH161960 -18.2725 147.720 -1 -18.5550 147.924 1000 -18.2725 147.720 TC -18.3095 147.689 1 3 246
1960063S14155 1960 10 SP EA NOT_NAMED 1960-03-08 06:00:00 TS -18.4251 147.600 1001 bom main 113 112 O_____O__OP___ jtwc_sh SH161960 -18.3000 147.600 -1 -18.6000 147.600 1001 -18.3000 147.600 TC -18.3255 147.599 1 4 263
1960063S14155 1960 10 SP EA NOT_NAMED 1960-03-08 08:00:00 TS -18.4238 147.448 1001 bom main 109 109 P_____O__PP___ SH161960 -18.3079 147.556 -1 -18.6000 147.100 1001 -18.3079 147.556 TC -18.3185 147.556 1 3 274
1960063S14155 1960 10 SP EA NOT_NAMED 1960-03-08 09:00:00 TS -18.4132 147.416 main 109 109 P_____P__PP___ SH161960 -18.3075 147.542 -1 -18.5734 147.046 1001 -18.3075 147.542 TC -18.3125 147.537 1 1 314
1960063S14155 1960 10 SP EA NOT_NAMED 1960-03-08 11:00:00 TS -18.3848 147.411 1001 bom main 109 109 P_____O__PO___ SH161960 -18.3026 147.517 -1 -18.5000 147.200 1001 -18.3026 147.517 TC -18.3000 147.500 1 1 342
1960063S14155 1960 10 SP EA NOT_NAMED 1960-03-08 12:00:00 TS -18.3755 147.406 main 109 109 O_____P__OP___ jtwc_sh SH161960 -18.3000 147.500 -1 -18.4823 147.251 1001 -18.3000 147.500 TC -18.2952 147.480 1 0 0
1960063S14155 1960 10 SP EA NOT_NAMED 1960-03-08 15:00:00 TS -18.3771 147.409 main 109 109 P_____P__PP___ SH161960 -18.2975 147.415 -1 -18.4778 147.422 1001 -18.2975 147.415 TC -18.2878 147.413 1 0 0
1960063S14155 1960 10 SP EA NOT_NAMED 1960-03-08 17:00:00 TS -18.3946 147.418 1002 bom main 109 109 P_____O__PP___ SH161960 -18.2989 147.340 -1 -18.5000 147.500 1002 -18.2989 147.340 TC -18.2877 147.363 1 1 0
1960063S14155 1960 10 SP EA NOT_NAMED 1960-03-08 18:00:00 TS -18.4238 147.434 main 109 98 O_____P__OP___ jtwc_sh SH161960 -18.3000 147.300 -1 -18.5109 147.509 1002 -18.3000 147.300 TC -18.2887 147.337 1 2 0
1960063S14155 1960 10 SP EA NOT_NAMED 1960-03-08 21:00:00 TS -18.5004 147.431 main 98 88 ______P___P___ SH161960 -1 -18.5612 147.463 1002 TC -18.2947 147.256 1 2 200
1960063S14155 1960 10 SP EA NOT_NAMED 1960-03-08 23:00:00 TS -18.5581 147.394 1002 bom main 88 88 ______O___O___ SH161960 -1 -18.6000 147.400 1002 TC -18.3000 147.200 2 2 203
1960063S14155 1960 10 SP EA NOT_NAMED 1960-03-09 00:00:00 TS -18.6096 147.393 main 88 74 ______P_______ -1 -18.6192 147.385 1002 2 2 221
1960063S14155 1960 10 SP EA NOT_NAMED 1960-03-09 03:00:00 TS -18.6651 147.291 main 74 69 ______P_______ -1 -18.6745 147.312 1002 2 3 247
1960063S14155 1960 10 SP EA NOT_NAMED 1960-03-09 05:00:00 TS -18.6948 147.185 1002 bom main 69 64 ______O_______ -1 -18.7000 147.200 1002 2 3 257
1960063S14155 1960 10 SP EA NOT_NAMED 1960-03-09 06:00:00 TS -18.7052 147.112 main 64 52 ______P_______ -1 -18.7069 147.116 1002 2 6 268
1960063S14155 1960 10 SP EA NOT_NAMED 1960-03-09 09:00:00 NR -18.7082 146.771 main 52 21 ______P_______ -1 -18.7082 146.771 1003 2 7 271
1960063S14155 1960 10 SP EA NOT_NAMED 1960-03-09 11:00:00 NR -18.7000 146.500 1005 bom main 21 ______O_______ -1 -18.7000 146.500 1005 8 272

Digital Typhoon Data and Search

About IBTrACS Database

This database is a web-friendly format of International Best Track Archive for Climate Stewardship (IBTrACS), a global best track data archive curated by NOAA dating back to 1842.

Updated: 2021-12-06